Time;durP1;ratioP1;P1;durP2;ratioP2;P2;SDS_P1;SDS_P2;PMS_P1;PMS_P2;Temp;Humidity;BMP_temperature;BMP_pressure;BME280_temperature;BME280_humidity;BME280_pressure;Samples;Min_cycle;Max_cycle;Signal;HPM_P1;HPM_P2
2022/12/13 00:01:19;;;;;;;96.90;52.28;;;;;;;-6.96;100.00;158772.22;5052446;28;20047;-62
2022/12/13 00:03:44;;;;;;;101.20;56.30;;;;;;;-6.99;100.00;158762.91;5053222;28;20471;-62
2022/12/13 00:06:11;;;;;;;99.32;57.70;;;;;;;-6.97;100.00;158768.25;5052128;28;20040;-62
2022/12/13 00:08:37;;;;;;;97.90;53.13;;;;;;;-6.96;100.00;158772.22;5053658;28;20178;-62
2022/12/13 00:11:06;;;;;;;93.95;54.00;;;;;;;-7.01;100.00;158758.91;5051702;28;20045;-62
2022/12/13 00:13:32;;;;;;;108.55;60.78;;;;;;;-6.95;100.00;158774.91;5053982;28;20048;-62
2022/12/13 00:15:59;;;;;;;109.10;54.65;;;;;;;-6.98;100.00;158765.56;5051896;28;20067;-62
2022/12/13 00:18:25;;;;;;;120.55;56.63;;;;;;;-6.98;100.00;158766.88;5052906;28;20079;-62
2022/12/13 00:20:50;;;;;;;85.95;51.95;;;;;;;-6.99;100.00;158762.91;5052152;28;20104;-62
2022/12/13 00:23:16;;;;;;;110.85;53.28;;;;;;;-7.01;100.00;158760.22;5053112;28;20028;-63
2022/12/13 00:25:41;;;;;;;100.97;56.20;;;;;;;-7.02;100.00;158757.56;5051418;28;20025;-61
2022/12/13 00:28:07;;;;;;;97.47;54.53;;;;;;;-7.03;100.00;158754.88;5053116;28;20037;-63
2022/12/13 00:30:33;;;;;;;106.97;57.15;;;;;;;-7.07;100.00;158744.25;5050837;28;20163;-61
2022/12/13 00:32:58;;;;;;;129.98;57.50;;;;;;;-7.21;100.00;158708.25;5052404;28;20033;-62
2022/12/13 00:35:23;;;;;;;114.05;57.13;;;;;;;-7.09;100.00;158737.59;5053395;28;20025;-63
2022/12/13 00:37:49;;;;;;;98.40;60.47;;;;;;;-7.12;100.00;158730.94;5051514;28;20071;-62
2022/12/13 00:40:14;;;;;;;105.45;54.85;;;;;;;-7.14;100.00;158724.22;5052582;28;20100;-62
2022/12/13 00:42:40;;;;;;;104.05;57.25;;;;;;;-7.19;100.00;158712.28;5051682;28;20412;-62
2022/12/13 00:45:06;;;;;;;104.95;57.25;;;;;;;-7.14;100.00;158725.59;5048201;28;20041;-62
2022/12/13 00:47:31;;;;;;;85.38;51.88;;;;;;;-7.18;100.00;158716.25;5031294;28;20111;-61
2022/12/13 00:49:56;;;;;;;91.55;51.85;;;;;;;-7.38;100.00;158662.97;5014806;28;20037;-61
2022/12/13 00:52:22;;;;;;;87.88;51.85;;;;;;;-7.30;100.00;158682.94;5031458;28;20045;-61
2022/12/13 00:54:47;;;;;;;96.32;51.83;;;;;;;-7.48;100.00;158637.59;5032673;28;20029;-60
2022/12/13 00:57:12;;;;;;;92.20;50.88;;;;;;;-7.39;100.00;158661.59;5031240;28;20041;-60
2022/12/13 00:59:38;;;;;;;100.30;50.58;;;;;;;-7.40;100.00;158658.94;5032951;28;20385;-61
2022/12/13 01:02:03;;;;;;;98.65;50.30;;;;;;;-7.38;100.00;158662.97;5030493;28;20049;-61
2022/12/13 01:04:28;;;;;;;88.88;54.78;;;;;;;-7.41;100.00;158656.25;5032671;28;20022;-61
2022/12/13 01:06:54;;;;;;;98.63;49.85;;;;;;;-7.57;100.00;158613.66;5030853;28;20053;-61
2022/12/13 01:09:28;;;;;;;96.32;54.30;;;;;;;-7.49;100.00;158636.28;5032441;28;20384;-61
2022/12/13 01:11:57;;;;;;;83.05;48.58;;;;;;;-7.51;100.00;158629.63;5031149;28;20112;-61
2022/12/13 01:14:22;;;;;;;89.03;53.70;;;;;;;-7.53;100.00;158624.28;5052269;28;20033;-60
2022/12/13 01:16:48;;;;;;;91.75;50.97;;;;;;;-7.53;100.00;158624.28;5050729;28;20103;-61
2022/12/13 01:19:13;;;;;;;93.90;48.17;;;;;;;-7.51;100.00;158629.63;5052207;28;20098;-61
2022/12/13 01:21:38;;;;;;;107.00;57.28;;;;;;;-7.53;100.00;158624.28;5050868;28;20044;-61
2022/12/13 01:24:05;;;;;;;105.43;54.88;;;;;;;-7.50;100.00;158632.31;5051819;28;20028;-61
2022/12/13 01:26:31;;;;;;;102.72;55.80;;;;;;;-7.51;100.00;158629.63;5050751;28;20507;-60
2022/12/13 01:28:56;;;;;;;96.60;55.47;;;;;;;-7.50;100.00;158632.31;5051666;28;20025;-60
2022/12/13 01:31:22;;;;;;;92.85;51.42;;;;;;;-7.49;100.00;158636.28;5050768;28;20041;-60
2022/12/13 01:33:48;;;;;;;99.40;52.97;;;;;;;-7.46;100.00;158642.94;5051757;28;20487;-60
2022/12/13 01:36:20;;;;;;;99.43;51.75;;;;;;;-7.48;100.00;158637.59;5050435;28;20043;-60
2022/12/13 01:38:45;;;;;;;80.70;47.90;;;;;;;-7.53;100.00;158624.28;5051786;28;20364;-60
2022/12/13 01:41:15;;;;;;;91.22;50.80;;;;;;;-7.49;100.00;158634.97;5049354;28;20048;-60
2022/12/13 01:43:41;;;;;;;93.95;52.10;;;;;;;-7.50;100.00;158632.31;5042324;28;20825;-62
2022/12/13 01:46:07;;;;;;;107.20;58.88;;;;;;;-7.50;100.00;158632.31;5030084;28;20133;-62
2022/12/13 01:48:38;;;;;;;84.57;48.92;;;;;;;-7.51;100.00;158629.63;5031594;28;20460;-63
2022/12/13 01:51:05;;;;;;;86.15;50.28;;;;;;;-7.56;100.00;158616.34;5030173;28;20120;-62
2022/12/13 01:53:35;;;;;;;101.70;53.70;;;;;;;-7.58;100.00;158611.00;5031753;28;20384;-62
2022/12/13 01:56:05;;;;;;;108.28;57.45;;;;;;;-7.61;100.00;158602.97;5030018;28;20056;-61
2022/12/13 01:58:33;;;;;;;95.38;53.50;;;;;;;-7.63;100.00;158599.00;5036743;28;20025;-62
2022/12/13 02:00:59;;;;;;;95.70;50.13;;;;;;;-7.65;100.00;158593.66;5049856;28;20090;-62
2022/12/13 02:03:25;;;;;;;92.97;52.88;;;;;;;-7.67;100.00;158588.34;5051165;28;20052;-62
2022/12/13 02:05:53;;;;;;;105.88;49.33;;;;;;;-7.68;100.00;158587.00;5050195;28;20035;-61
2022/12/13 02:08:18;;;;;;;105.35;56.83;;;;;;;-7.67;100.00;158589.66;5051436;28;20058;-62
2022/12/13 02:10:44;;;;;;;98.28;49.95;;;;;;;-7.72;100.00;158576.34;5049577;28;20395;-62
2022/12/13 02:13:10;;;;;;;97.03;51.53;;;;;;;-7.77;100.00;158563.00;5046748;28;20052;-62
2022/12/13 02:16:06;;;;;;;87.90;52.00;;;;;;;-7.83;100.00;158547.03;5029891;28;20482;-62
2022/12/13 02:19:03;;;;;;;88.82;50.90;;;;;;;-7.81;100.00;158552.38;5010177;28;20056;-62
2022/12/13 02:21:53;;;;;;;90.63;48.63;;;;;;;-7.88;100.00;158533.72;5029900;28;20041;-62
2022/12/13 02:24:21;;;;;;;95.68;49.58;;;;;;;-7.88;100.00;158533.72;5030810;28;20405;-62
2022/12/13 02:27:05;;;;;;;99.70;55.78;;;;;;;-7.90;100.00;158528.38;5029663;28;20037;-62
2022/12/13 02:29:52;;;;;;;96.13;50.40;;;;;;;-7.89;100.00;158532.38;5031281;28;20040;-63
2022/12/13 02:32:26;;;;;;;87.95;50.78;;;;;;;-7.92;100.00;158523.03;5029380;28;20045;-63
2022/12/13 02:35:10;;;;;;;90.72;45.13;;;;;;;-7.94;100.00;158517.75;5030947;28;20040;-63
2022/12/13 02:38:09;;;;;;;87.15;47.08;;;;;;;-7.97;100.00;158512.41;5029612;28;20041;-63
2022/12/13 02:40:45;;;;;;;92.57;52.17;;;;;;;-7.99;100.00;158507.06;5029618;28;20048;-61
2022/12/13 02:43:31;;;;;;;89.13;47.63;;;;;;;-8.04;100.00;158493.75;5031836;28;20445;-64
2022/12/13 02:46:02;;;;;;;93.70;50.10;;;;;;;-8.05;100.00;158489.78;5028615;28;20045;-64
2022/12/13 02:48:30;;;;;;;91.32;51.55;;;;;;;-8.08;100.00;158483.13;5030975;28;20037;-64
2022/12/13 02:50:58;;;;;;;94.25;50.85;;;;;;;-8.10;100.00;158477.78;5029193;28;20040;-64
2022/12/13 02:53:25;;;;;;;84.97;50.33;;;;;;;-8.12;100.00;158472.44;5029935;28;20485;-64
2022/12/13 02:55:50;;;;;;;95.72;53.00;;;;;;;-8.12;100.00;158472.44;5043768;28;20081;-64
2022/12/13 02:58:24;;;;;;;98.70;54.75;;;;;;;-8.11;100.00;158475.13;5050597;28;20021;-64
2022/12/13 03:01:08;;;;;;;92.57;52.63;;;;;;;-8.12;100.00;158472.44;5048944;28;20383;-63
2022/12/13 03:03:46;;;;;;;102.85;49.03;;;;;;;-8.15;100.00;158465.81;5050949;28;20384;-64
2022/12/13 03:06:31;;;;;;;92.60;52.10;;;;;;;-8.13;100.00;158469.78;5030963;28;20140;-64
2022/12/13 03:09:09;;;;;;;92.63;50.47;;;;;;;-8.15;100.00;158464.44;5049746;28;20484;-64
2022/12/13 03:15:03;;;;;;;91.18;51.72;;;;;;;-8.16;100.00;158461.81;5050941;28;20403;-64
2022/12/13 03:17:33;;;;;;;83.95;43.53;;;;;;;-8.19;100.00;158453.81;5048566;28;20037;-63
2022/12/13 03:19:59;;;;;;;88.22;50.33;;;;;;;-8.16;100.00;158461.81;5050246;28;20495;-63
2022/12/13 03:22:24;;;;;;;86.35;49.58;;;;;;;-8.16;100.00;158461.81;5048599;28;20123;-63
2022/12/13 03:24:50;;;;;;;79.90;47.13;;;;;;;-8.18;100.00;158456.47;5050214;28;20033;-63
2022/12/13 03:27:16;;;;;;;76.68;45.63;;;;;;;-8.16;100.00;158461.81;5048623;28;20033;-63
2022/12/13 03:29:41;;;;;;;87.65;44.85;;;;;;;-8.17;100.00;158459.16;5050609;28;20379;-63
2022/12/13 03:32:06;;;;;;;97.25;50.15;;;;;;;-8.18;100.00;158456.47;5048355;28;20045;-63
2022/12/13 03:34:32;;;;;;;84.47;48.33;;;;;;;-8.18;100.00;158457.78;5050476;28;20032;-64
2022/12/13 03:36:57;;;;;;;94.95;48.50;;;;;;;-8.20;100.00;158451.13;5048380;28;20496;-62
2022/12/13 03:39:23;;;;;;;88.60;46.17;;;;;;;-8.22;100.00;158447.16;5049881;28;20381;-61
2022/12/13 03:41:49;;;;;;;75.25;42.92;;;;;;;-8.29;100.00;158429.84;5048970;28;20047;-60
2022/12/13 03:44:14;;;;;;;77.57;45.70;;;;;;;-8.31;100.00;158424.53;5049633;28;20052;-63
2022/12/13 03:46:40;;;;;;;84.35;48.83;;;;;;;-8.29;100.00;158429.84;5048094;28;20075;-63
2022/12/13 03:49:05;;;;;;;85.97;45.13;;;;;;;-8.30;100.00;158427.16;5050056;28;20032;-62
2022/12/13 03:51:31;;;;;;;77.95;43.88;;;;;;;-8.32;100.00;158421.88;5048633;28;20099;-63
2022/12/13 03:53:56;;;;;;;80.07;45.72;;;;;;;-8.30;100.00;158427.16;5035202;28;20033;-63
2022/12/13 03:56:21;;;;;;;87.47;44.85;;;;;;;-8.27;100.00;158432.50;5028881;28;20045;-63
2022/12/13 03:58:47;;;;;;;86.90;47.67;;;;;;;-8.25;100.00;158439.16;5030579;28;20075;-63
2022/12/13 04:01:15;;;;;;;91.88;49.65;;;;;;;-8.22;100.00;158447.16;5028096;28;20112;-64
2022/12/13 04:03:42;;;;;;;91.10;46.80;;;;;;;-8.27;100.00;158432.50;5030201;28;20068;-63
2022/12/13 04:06:09;;;;;;;83.05;47.55;;;;;;;-8.24;100.00;158441.81;5032125;28;20041;-63
2022/12/13 04:08:35;;;;;;;74.68;44.05;;;;;;;-8.24;100.00;158440.50;5033818;28;20112;-63
2022/12/13 04:13:31;;;;;;;79.40;46.95;;;;;;;-8.27;100.00;158432.50;5031926;28;20045;-63
2022/12/13 04:13:49;;;;;;;69.60;41.58;;;;;;;-8.26;100.00;158435.16;5033741;28;20499;-63
2022/12/13 04:16:15;;;;;;;85.90;46.42;;;;;;;-8.31;100.00;158424.53;5031667;28;20045;-64
2022/12/13 04:18:40;;;;;;;74.07;45.92;;;;;;;-8.33;100.00;158419.19;5033560;28;20045;-63
2022/12/13 04:21:05;;;;;;;80.97;44.05;;;;;;;-8.37;100.00;158408.53;5031870;28;20049;-63
2022/12/13 04:23:31;;;;;;;81.20;42.75;;;;;;;-8.40;100.00;158400.56;5033217;28;20029;-63
2022/12/13 04:25:58;;;;;;;69.00;41.80;;;;;;;-8.45;100.00;158387.25;5031589;28;20041;-63
2022/12/13 04:28:24;;;;;;;81.25;42.25;;;;;;;-8.43;100.00;158391.25;5033400;28;20044;-63
2022/12/13 04:30:50;;;;;;;77.90;45.13;;;;;;;-8.47;100.00;158383.28;5031425;28;20022;-63
2022/12/13 04:33:16;;;;;;;88.00;48.85;;;;;;;-8.40;100.00;158399.22;5033251;28;20125;-63
2022/12/13 04:35:41;;;;;;;82.85;43.33;;;;;;;-8.39;100.00;158403.22;5032212;28;20127;-63
2022/12/13 04:38:06;;;;;;;77.68;48.30;;;;;;;-8.39;100.00;158403.22;5032625;28;20026;-63
2022/12/13 04:40:32;;;;;;;82.45;43.92;;;;;;;-8.38;100.00;158405.91;5033210;28;20025;-63
2022/12/13 04:42:57;;;;;;;72.70;40.33;;;;;;;-8.39;100.00;158403.22;5031498;28;20045;-63
2022/12/13 04:45:23;;;;;;;81.07;45.72;;;;;;;-8.40;100.00;158400.56;5032593;28;20053;-64
2022/12/13 04:47:48;;;;;;;88.55;42.47;;;;;;;-8.42;100.00;158395.22;5031557;28;20050;-64
2022/12/13 04:50:15;;;;;;;79.65;44.55;;;;;;;-8.42;100.00;158395.22;5048205;28;20491;-64
2022/12/13 04:52:40;;;;;;;93.38;46.00;;;;;;;-8.45;100.00;158387.25;5051193;28;20098;-64
2022/12/13 04:55:07;;;;;;;72.70;43.30;;;;;;;-8.41;100.00;158396.59;5052826;28;20333;-64
2022/12/13 04:57:33;;;;;;;79.93;41.38;;;;;;;-8.45;100.00;158387.25;5051335;28;20155;-63
2022/12/13 04:59:58;;;;;;;79.97;45.97;;;;;;;-8.44;100.00;158389.88;5052636;28;20017;-63
2022/12/13 05:02:24;;;;;;;76.70;44.28;;;;;;;-8.41;100.00;158396.59;5050628;28;20048;-64
2022/12/13 05:04:50;;;;;;;87.68;45.15;;;;;;;-8.46;100.00;158384.59;5048159;28;20036;-61
2022/12/13 05:07:15;;;;;;;86.03;44.65;;;;;;;-8.46;100.00;158384.59;5030578;28;20041;-61
2022/12/13 05:09:41;;;;;;;79.18;44.45;;;;;;;-8.45;100.00;158387.25;5038342;28;20079;-61
2022/12/13 05:12:06;;;;;;;75.32;44.63;;;;;;;-8.47;100.00;158381.97;5034774;28;20049;-60
2022/12/13 05:14:32;;;;;;;81.88;45.08;;;;;;;-8.53;100.00;158367.31;5045802;28;20025;-60
2022/12/13 05:16:58;;;;;;;66.00;37.92;;;;;;;-8.52;100.00;158370.00;5049994;28;20800;-60
2022/12/13 05:19:24;;;;;;;84.93;45.90;;;;;;;-8.56;100.00;158358.00;5032716;28;20473;-60
2022/12/13 05:21:49;;;;;;;76.32;42.85;;;;;;;-8.61;100.00;158347.38;5027343;28;20053;-60
2022/12/13 05:24:14;;;;;;;75.60;41.05;;;;;;;-8.63;100.00;158342.03;5021312;28;20028;-60
2022/12/13 05:26:40;;;;;;;73.82;40.00;;;;;;;-8.69;100.00;158324.72;5030726;28;20381;-60
2022/12/13 05:29:05;;;;;;;73.07;41.05;;;;;;;-8.67;100.00;158331.34;5014013;28;20037;-59
2022/12/13 05:31:31;;;;;;;76.78;47.08;;;;;;;-8.72;100.00;158316.75;5030729;28;20569;-60
2022/12/13 05:33:56;;;;;;;72.38;43.28;;;;;;;-8.70;100.00;158323.41;5037882;28;20032;-60
2022/12/13 05:36:24;;;;;;;86.30;46.55;;;;;;;-8.69;100.00;158326.06;5050463;28;20041;-60
2022/12/13 05:38:50;;;;;;;70.90;39.08;;;;;;;-8.73;100.00;158315.41;5050158;28;20029;-60
2022/12/13 05:41:17;;;;;;;86.13;41.45;;;;;;;-8.78;100.00;158302.09;5050166;28;20033;-60
2022/12/13 05:43:43;;;;;;;77.55;41.47;;;;;;;-8.79;100.00;158299.44;5051449;28;20032;-60
2022/12/13 05:46:08;;;;;;;70.15;40.10;;;;;;;-8.76;100.00;158307.44;5049813;28;20411;-60
2022/12/13 05:48:33;;;;;;;77.15;43.08;;;;;;;-8.76;100.00;158307.44;5051932;28;20626;-60
2022/12/13 05:50:59;;;;;;;68.53;42.72;;;;;;;-8.80;100.00;158296.75;5049431;28;20457;-60
2022/12/13 05:53:24;;;;;;;74.88;40.55;;;;;;;-8.83;100.00;158288.81;5051976;28;20033;-60
2022/12/13 05:55:49;;;;;;;77.30;41.70;;;;;;;-8.88;100.00;158276.81;5050372;28;20025;-60
2022/12/13 05:58:15;;;;;;;71.63;40.78;;;;;;;-8.96;100.00;158256.84;5051123;28;20032;-60
2022/12/13 06:00:41;;;;;;;74.25;41.95;;;;;;;-9.02;100.00;158240.88;5050369;28;20020;-60
2022/12/13 06:03:06;;;;;;;69.13;39.58;;;;;;;-9.08;100.00;158224.91;5051569;28;20357;-60
2022/12/13 06:05:31;;;;;;;72.40;39.40;;;;;;;-9.06;100.00;158230.25;5051204;28;20036;-60
2022/12/13 06:07:57;;;;;;;73.28;42.38;;;;;;;-9.08;100.00;158224.91;5049883;28;20522;-60
2022/12/13 06:10:22;;;;;;;76.13;39.92;;;;;;;-9.08;100.00;158224.91;5051132;28;20384;-61
2022/12/13 06:12:48;;;;;;;74.20;39.90;;;;;;;-9.09;100.00;158223.59;5049619;28;20127;-60
2022/12/13 06:15:13;;;;;;;67.63;40.90;;;;;;;-9.08;100.00;158224.91;5051473;28;20027;-60
2022/12/13 06:17:39;;;;;;;72.97;41.33;;;;;;;-9.05;100.00;158232.91;5049845;28;20114;-60
2022/12/13 06:20:05;;;;;;;74.05;42.83;;;;;;;-9.01;100.00;158243.53;5050932;28;20021;-60
2022/12/13 06:22:31;;;;;;;74.43;39.03;;;;;;;-8.97;100.00;158254.16;5049629;28;20380;-60
2022/12/13 06:24:56;;;;;;;71.07;41.63;;;;;;;-8.94;100.00;158262.19;5050964;28;20031;-60
2022/12/13 06:27:21;;;;;;;65.32;39.50;;;;;;;-8.90;100.00;158270.19;5048532;28;20037;-60
2022/12/13 06:29:47;;;;;;;81.25;39.15;;;;;;;-8.93;100.00;158264.84;5050684;28;20029;-60
2022/12/13 06:32:12;;;;;;;74.80;43.20;;;;;;;-8.88;100.00;158275.47;5049376;28;20408;-60
2022/12/13 06:34:37;;;;;;;94.20;42.65;;;;;;;-8.87;100.00;158278.13;5051020;28;20036;-60
2022/12/13 06:37:05;;;;;;;81.05;41.40;;;;;;;-8.87;100.00;158278.13;5048988;28;20033;-60
2022/12/13 06:39:31;;;;;;;66.63;38.42;;;;;;;-8.80;100.00;158296.75;5050958;28;20147;-60
2022/12/13 06:41:56;;;;;;;71.47;41.05;;;;;;;-8.77;100.00;158304.78;5049166;28;20120;-60
2022/12/13 06:44:22;;;;;;;74.10;39.63;;;;;;;-8.72;100.00;158316.75;5050110;28;20037;-59
2022/12/13 06:46:47;;;;;;;76.18;42.08;;;;;;;-8.68;100.00;158328.75;5049397;28;20425;-60
2022/12/13 06:49:12;;;;;;;75.13;41.05;;;;;;;-8.69;100.00;158326.06;5050253;28;20060;-60
2022/12/13 06:51:38;;;;;;;75.68;43.25;;;;;;;-8.64;100.00;158339.38;5047864;28;20483;-60
2022/12/13 06:54:03;;;;;;;68.85;39.95;;;;;;;-8.67;100.00;158331.34;5050521;28;20025;-59
2022/12/13 06:56:30;;;;;;;71.75;44.05;;;;;;;-8.68;100.00;158327.38;5049334;28;20047;-59
2022/12/13 06:58:55;;;;;;;75.30;40.55;;;;;;;-8.71;100.00;158319.44;5039803;28;20052;-59
2022/12/13 07:01:21;;;;;;;77.30;48.05;;;;;;;-8.70;100.00;158323.41;5029111;28;20100;-59
2022/12/13 07:03:46;;;;;;;66.25;43.22;;;;;;;-8.69;100.00;158326.06;5030673;28;20021;-59
2022/12/13 07:06:17;;;;;;;71.63;41.08;;;;;;;-8.69;100.00;158326.06;5028316;28;20091;-59
2022/12/13 07:08:47;;;;;;;82.75;41.92;;;;;;;-8.72;100.00;158316.75;5030523;28;20029;-59
2022/12/13 07:11:17;;;;;;;77.15;44.75;;;;;;;-8.73;100.00;158315.41;5028714;28;20048;-59
2022/12/13 07:13:42;;;;;;;72.88;42.40;;;;;;;-8.75;100.00;158308.75;5028210;28;20038;-60
2022/12/13 07:16:08;;;;;;;83.45;42.03;;;;;;;-8.77;100.00;158304.78;5028807;28;20042;-59
2022/12/13 07:18:34;;;;;;;89.18;47.75;;;;;;;-8.76;100.00;158307.44;5030369;28;20072;-59
2022/12/13 07:20:59;;;;;;;84.25;45.22;;;;;;;-8.76;100.00;158307.44;5028477;28;20458;-60
2022/12/13 07:23:25;;;;;;;72.95;39.15;;;;;;;-8.74;100.00;158312.72;5030331;28;20025;-60
2022/12/13 07:25:52;;;;;;;85.75;44.58;;;;;;;-8.74;100.00;158312.72;5029046;28;20032;-60
2022/12/13 07:28:17;;;;;;;77.85;39.47;;;;;;;-8.74;100.00;158312.72;5030313;28;20072;-59
2022/12/13 07:30:43;;;;;;;66.85;44.13;;;;;;;-8.77;100.00;158306.09;5028820;28;20468;-59
2022/12/13 07:33:09;;;;;;;73.88;40.85;;;;;;;-8.74;100.00;158312.72;5030306;28;20025;-59
2022/12/13 07:35:34;;;;;;;63.92;40.50;;;;;;;-8.75;100.00;158310.09;5028544;28;20018;-59
2022/12/13 07:37:59;;;;;;;76.55;43.40;;;;;;;-8.78;100.00;158303.41;5029998;28;20029;-60
2022/12/13 07:40:25;;;;;;;76.32;44.80;;;;;;;-8.80;100.00;158298.13;5033277;28;20071;-60
2022/12/13 07:42:54;;;;;;;79.85;45.97;;;;;;;-8.78;100.00;158303.41;5032502;28;20041;-60
2022/12/13 07:45:21;;;;;;;70.55;44.30;;;;;;;-8.74;100.00;158312.72;5033973;28;20053;-60
2022/12/13 07:47:46;;;;;;;64.43;36.78;;;;;;;-8.77;100.00;158304.78;5032653;28;20099;-60
2022/12/13 07:50:12;;;;;;;67.88;41.00;;;;;;;-8.79;100.00;158299.44;5033484;28;20025;-60
2022/12/13 07:52:37;;;;;;;70.53;41.80;;;;;;;-8.82;100.00;158291.44;5032672;28;20041;-60
2022/12/13 07:55:04;;;;;;;86.15;46.20;;;;;;;-8.83;100.00;158288.81;5033801;28;20400;-59
2022/12/13 07:57:29;;;;;;;77.55;46.00;;;;;;;-8.79;100.00;158299.44;5032325;28;20463;-60
2022/12/13 07:59:55;;;;;;;75.10;40.67;;;;;;;-8.77;100.00;158304.78;5033752;28;20022;-60
2022/12/13 08:02:20;;;;;;;77.82;44.63;;;;;;;-8.75;100.00;158310.09;5032608;28;20042;-59
2022/12/13 08:04:46;;;;;;;71.40;42.13;;;;;;;-8.70;100.00;158322.03;5033681;28;20025;-59
2022/12/13 08:07:11;;;;;;;74.90;38.90;;;;;;;-8.69;100.00;158324.72;5031905;28;20037;-60
2022/12/13 08:09:37;;;;;;;69.90;40.22;;;;;;;-8.64;100.00;158339.38;5033968;28;20033;-60
2022/12/13 08:12:04;;;;;;;76.50;37.72;;;;;;;-8.62;100.00;158344.72;5031690;28;20689;-60
2022/12/13 08:14:30;;;;;;;62.00;38.22;;;;;;;-8.59;100.00;158351.34;5033700;28;20088;-60
2022/12/13 08:16:55;;;;;;;67.10;38.70;;;;;;;-8.59;100.00;158351.34;5031975;28;20041;-60
2022/12/13 08:19:20;;;;;;;69.57;40.40;;;;;;;-8.53;100.00;158366.00;5033388;28;20025;-60
2022/12/13 08:21:46;;;;;;;84.82;40.22;;;;;;;-8.50;100.00;158373.97;5032212;28;20439;-60
2022/12/13 08:24:11;;;;;;;66.88;39.10;;;;;;;-8.49;100.00;158377.94;5033290;28;20048;-60
2022/12/13 08:26:36;;;;;;;75.13;42.10;;;;;;;-8.44;100.00;158389.88;5031580;28;20053;-60
2022/12/13 08:29:03;;;;;;;62.70;37.45;;;;;;;-8.40;100.00;158400.56;5033573;28;20018;-60
2022/12/13 08:31:28;;;;;;;75.10;39.92;;;;;;;-8.24;100.00;158440.50;5032174;28;20048;-60
2022/12/13 08:33:54;;;;;;;67.93;39.97;;;;;;;-8.13;100.00;158469.78;5033090;28;20419;-60
2022/12/13 08:36:22;;;;;;;78.93;40.35;;;;;;;-8.01;100.00;158501.78;5031860;28;20038;-60
2022/12/13 08:38:48;;;;;;;;;;;;;;;-7.90;100.00;158528.38;5033802;28;20060;-60
2022/12/13 08:41:13;;;;;;;60.77;35.73;;;;;;;-7.83;100.00;158548.38;5031236;28;19936;-60
2022/12/13 08:43:38;;;;;;;75.10;39.33;;;;;;;-7.73;100.00;158573.69;5033454;28;20432;-61
2022/12/13 08:46:04;;;;;;;70.13;43.38;;;;;;;-7.62;100.00;158600.31;5030967;28;20045;-61
2022/12/13 08:48:30;;;;;;;74.75;39.92;;;;;;;-7.60;100.00;158605.66;5032843;28;20029;-61
2022/12/13 08:51:04;;;;;;;72.32;40.15;;;;;;;-7.39;100.00;158660.28;5030292;28;20057;-60
2022/12/13 08:53:29;;;;;;;86.10;44.28;;;;;;;-7.17;100.00;158718.91;5033336;28;20029;-61
2022/12/13 08:56:02;;;;;;;78.03;45.40;;;;;;;-6.49;100.00;158893.53;5030881;28;20091;-61
2022/12/13 08:58:28;;;;;;;70.72;42.42;;;;;;;-5.77;100.00;159080.19;5033364;28;20040;-61
2022/12/13 09:00:53;;;;;;;85.68;46.33;;;;;;;-5.17;100.00;159233.69;5031383;28;20473;-61
2022/12/13 09:03:19;;;;;;;62.00;39.38;;;;;;;-4.97;100.00;159285.75;5032469;28;20024;-61
2022/12/13 09:05:44;;;;;;;59.08;37.75;;;;;;;-5.07;100.00;159259.06;5031256;28;20029;-61
2022/12/13 09:08:10;;;;;;;60.45;40.78;;;;;;;-5.02;100.00;159272.38;5032731;28;20024;-61
2022/12/13 09:10:35;;;;;;;51.33;38.15;;;;;;;-4.86;100.00;159315.13;5031244;28;20025;-60
2022/12/13 09:13:00;;;;;;;63.88;39.60;;;;;;;-4.51;100.00;159405.94;5032496;28;20473;-61
2022/12/13 09:15:27;;;;;;;60.97;42.88;;;;;;;-4.07;100.00;159518.16;5032693;28;20025;-61
2022/12/13 09:17:52;;;;;;;71.15;40.70;;;;;;;-3.65;100.00;159627.69;5030543;28;20065;-61
2022/12/13 09:20:18;;;;;;;64.15;41.90;;;;;;;-3.36;100.00;159703.91;5032626;28;20052;-61
2022/12/13 09:22:43;;;;;;;67.38;46.08;;;;;;;-2.95;100.00;159808.16;5031038;28;20045;-61
2022/12/13 09:25:09;;;;;;;60.70;40.58;;;;;;;-2.47;100.00;159932.53;5031966;28;20376;-61
2022/12/13 09:27:34;;;;;;;57.40;40.17;;;;;;;-1.97;100.00;160062.31;5030952;28;20041;-61
2022/12/13 09:30:00;;;;;;;52.85;40.00;;;;;;;-1.49;100.00;160186.78;5032438;28;20642;-62
2022/12/13 09:32:27;;;;;;;56.08;39.47;;;;;;;-0.94;100.00;160330.03;5030702;28;20455;-61
2022/12/13 09:34:52;;;;;;;54.47;37.85;;;;;;;-0.57;100.00;160425.13;5031885;28;20461;-62
2022/12/13 09:37:18;;;;;;;44.70;34.70;;;;;;;-0.49;100.00;160446.56;5030596;28;20045;-61
2022/12/13 09:39:43;;;;;;;43.45;33.50;;;;;;;-0.26;100.00;160505.53;5032195;28;20033;-61
2022/12/13 09:42:21;;;;;;;47.42;35.65;;;;;;;0.25;100.00;160639.53;5030126;28;20385;-61
2022/12/13 09:44:56;;;;;;;33.50;26.77;;;;;;;0.15;100.00;160614.03;5031959;28;20045;-61
2022/12/13 09:47:33;;;;;;;42.65;31.85;;;;;;;-0.05;100.00;160560.44;5029823;28;20487;-61
2022/12/13 09:50:03;;;;;;;48.28;34.65;;;;;;;-0.38;100.00;160476.03;5031684;28;20029;-61
2022/12/13 09:52:39;;;;;;;47.55;33.92;;;;;;;-0.65;100.00;160406.38;5030202;28;20044;-61
2022/12/13 09:55:22;;;;;;;50.30;33.92;;;;;;;-0.54;100.00;160434.50;5031259;28;20036;-61
2022/12/13 09:57:48;;;;;;;41.95;34.85;;;;;;;-0.70;100.00;160392.97;5030566;28;20389;-61
2022/12/13 10:00:20;;;;;;;41.40;33.72;;;;;;;-0.83;100.00;160359.50;5031607;28;20105;-61
2022/12/13 10:02:50;;;;;;;46.72;32.28;;;;;;;-0.56;100.00;160427.81;5029781;28;20045;-61
2022/12/13 10:05:18;;;;;;;46.95;35.40;;;;;;;-0.38;100.00;160476.03;5031687;28;20051;-61
2022/12/13 10:07:43;;;;;;;49.55;31.13;;;;;;;-0.27;100.00;160502.84;5030152;28;20111;-61
2022/12/13 10:10:13;;;;;;;46.70;32.38;;;;;;;0.09;100.00;160597.94;5031056;28;20025;-61
2022/12/13 10:12:40;;;;;;;46.85;33.65;;;;;;;0.48;100.00;160698.50;5030131;28;20045;-61
2022/12/13 10:15:09;;;;;;;43.63;35.60;;;;;;;0.57;100.00;160722.59;5031382;28;20087;-61
2022/12/13 10:17:39;;;;;;;43.65;30.52;;;;;;;1.00;100.00;160833.91;5029732;28;20037;-61
2022/12/13 10:20:06;;;;;;;39.97;32.20;;;;;;;0.88;100.00;160801.75;5031475;28;20021;-61
2022/12/13 10:22:31;;;;;;;41.65;33.03;;;;;;;0.93;100.00;160816.47;5029916;28;20042;-61
2022/12/13 10:25:02;;;;;;;45.85;30.38;;;;;;;0.89;100.00;160804.44;5030825;28;20030;-61
2022/12/13 10:27:35;;;;;;;38.40;29.30;;;;;;;0.94;100.00;160819.16;5029819;28;20056;-61
2022/12/13 10:30:10;;;;;;;50.80;32.42;;;;;;;0.82;100.00;160785.66;5027965;28;20043;-61
2022/12/13 10:32:58;;;;;;;46.40;30.83;;;;;;;0.81;100.00;160784.28;5029023;28;20042;-61
2022/12/13 10:35:29;;;;;;;40.08;29.45;;;;;;;0.85;100.00;160795.03;5031326;28;20490;-61
2022/12/13 10:37:56;;;;;;;47.85;31.05;;;;;;;0.72;100.00;160760.13;5009836;28;20050;-61
2022/12/13 10:40:31;;;;;;;36.90;27.02;;;;;;;0.40;100.00;160677.06;5011331;28;20026;-61
2022/12/13 10:43:16;;;;;;;39.15;27.17;;;;;;;-0.05;100.00;160561.81;5009713;28;20108;-61
2022/12/13 10:45:57;;;;;;;42.95;32.58;;;;;;;-0.25;100.00;160509.53;5009434;28;20037;-61
2022/12/13 10:48:34;;;;;;;40.92;28.63;;;;;;;-0.32;100.00;160490.78;5027380;28;20033;-61
2022/12/13 10:51:11;;;;;;;43.72;31.10;;;;;;;-0.68;100.00;160398.34;5029160;28;20531;-61
2022/12/13 10:53:39;;;;;;;44.28;31.70;;;;;;;-0.92;100.00;160334.03;5030906;28;20038;-61
2022/12/13 10:56:05;;;;;;;42.65;33.10;;;;;;;-0.91;100.00;160336.72;5029036;28;20091;-61
2022/12/13 10:58:39;;;;;;;50.33;32.95;;;;;;;-0.73;100.00;160384.94;5030912;28;20435;-61
2022/12/13 11:01:19;;;;;;;42.88;31.85;;;;;;;-0.69;100.00;160395.66;5029236;28;20105;-61
2022/12/13 11:04:03;;;;;;;48.97;32.33;;;;;;;-0.60;100.00;160417.09;5030703;28;20041;-61
2022/12/13 11:06:43;;;;;;;39.97;29.90;;;;;;;-0.50;100.00;160443.91;5029405;28;20040;-61
2022/12/13 11:09:35;;;;;;;41.75;30.27;;;;;;;-0.42;100.00;160465.34;5030222;28;20021;-61